Time;durP1;ratioP1;P1;durP2;ratioP2;P2;SDS_P1;SDS_P2;PMS_P1;PMS_P2;Temp;Humidity;BMP_temperature;BMP_pressure;BME280_temperature;BME280_humidity;BME280_pressure;Samples;Min_cycle;Max_cycle;Signal;HPM_P1;HPM_P2
2022/08/30 00:02:34;;;;;;;3.40;1.37;;;;;;;15.63;100.00;102286.59;5048829;28;20207;-73
2022/08/30 00:05:01;;;;;;;2.50;1.63;;;;;;;15.74;100.00;102286.09;5034293;28;20422;-73
2022/08/30 00:07:27;;;;;;;1.50;1.30;;;;;;;15.74;100.00;102277.97;5048785;28;20703;-73
2022/08/30 00:09:52;;;;;;;1.97;1.73;;;;;;;16.24;100.00;102388.81;5051144;28;20426;-73
2022/08/30 00:12:19;;;;;;;2.40;1.50;;;;;;;16.08;100.00;102394.53;5031886;28;20935;-73
2022/08/30 00:14:45;;;;;;;1.77;1.37;;;;;;;14.82;100.00;102219.38;5051286;28;20206;-72
2022/08/30 00:17:11;;;;;;;2.00;1.50;;;;;;;15.04;100.00;102300.41;5051564;28;20449;-73
2022/08/30 00:19:37;;;;;;;3.90;1.27;;;;;;;15.79;100.00;102402.66;5050783;28;20541;-73
2022/08/30 00:22:03;;;;;;;2.30;1.47;;;;;;;15.69;100.00;102401.31;5048149;28;20246;-73
2022/08/30 00:24:28;;;;;;;2.83;1.53;;;;;;;14.85;100.00;102258.69;5040493;28;20556;-73
2022/08/30 00:26:54;;;;;;;1.80;1.40;;;;;;;15.68;100.00;102402.31;5032754;28;20458;-73
2022/08/30 00:29:19;;;;;;;2.20;1.33;;;;;;;15.26;100.00;102320.19;5051022;28;20183;-73
2022/08/30 00:31:45;;;;;;;2.20;1.40;;;;;;;15.80;100.00;102395.38;5048809;28;20193;-73
2022/08/30 00:34:10;;;;;;;2.27;1.80;;;;;;;14.88;100.00;102269.94;5050312;28;20183;-73
2022/08/30 00:36:36;;;;;;;1.97;1.47;;;;;;;15.74;100.00;102409.69;5048410;28;20658;-73
2022/08/30 00:39:02;;;;;;;2.50;1.40;;;;;;;15.49;100.00;102374.88;5033071;28;21188;-73
2022/08/30 00:41:28;;;;;;;1.90;1.40;;;;;;;15.08;100.00;102324.19;5030549;28;20183;-73
2022/08/30 00:43:53;;;;;;;2.40;1.43;;;;;;;15.49;100.00;102404.63;5050533;28;20467;-73
2022/08/30 00:46:19;;;;;;;2.10;1.53;;;;;;;14.87;100.00;102283.66;5031934;28;20188;-73
2022/08/30 00:48:48;;;;;;;3.00;1.73;;;;;;;15.81;100.00;102422.22;5051716;28;20679;-73
2022/08/30 00:51:15;;;;;;;1.83;1.43;;;;;;;15.04;100.00;102317.50;5049368;28;20683;-73
2022/08/30 00:53:46;;;;;;;2.83;1.53;;;;;;;15.48;100.00;102407.53;5050772;28;20437;-73
2022/08/30 00:56:12;;;;;;;3.60;1.90;;;;;;;15.45;100.00;102384.44;5050472;28;20419;-73
2022/08/30 00:58:44;;;;;;;2.53;1.60;;;;;;;15.54;100.00;102398.66;5032127;28;20458;-73
2022/08/30 01:01:10;;;;;;;3.90;2.00;;;;;;;15.46;100.00;102402.31;5050186;28;20414;-73
2022/08/30 01:03:37;;;;;;;3.40;2.00;;;;;;;15.46;100.00;102413.13;5048594;28;20992;-73
2022/08/30 01:06:04;;;;;;;2.03;1.70;;;;;;;15.46;100.00;102401.47;5031132;28;20578;-73
2022/08/30 01:08:29;;;;;;;2.20;1.47;;;;;;;14.73;100.00;102317.78;5029093;28;20519;-73
2022/08/30 01:10:56;;;;;;;2.53;2.10;;;;;;;15.12;100.00;102374.09;5032557;28;20910;-73
2022/08/30 01:13:24;;;;;;;2.60;1.93;;;;;;;15.15;100.00;102381.81;5033696;28;20229;-74
2022/08/30 01:15:50;;;;;;;3.33;2.20;;;;;;;15.54;100.00;102413.00;5049728;28;20414;-73
2022/08/30 01:18:17;;;;;;;4.10;1.90;;;;;;;15.38;100.00;102394.31;5048434;28;20462;-73
2022/08/30 01:20:52;;;;;;;3.47;2.13;;;;;;;14.71;100.00;102263.09;5038489;28;20433;-73
2022/08/30 01:23:20;;;;;;;2.17;1.77;;;;;;;14.67;100.00;102300.47;5047267;28;20595;-73
2022/08/30 01:25:48;;;;;;;4.13;1.70;;;;;;;15.21;100.00;102417.22;5033195;28;20803;-74
2022/08/30 01:28:19;;;;;;;2.20;2.00;;;;;;;15.34;100.00;102420.09;5030320;28;21029;-73
2022/08/30 01:30:45;;;;;;;3.57;1.90;;;;;;;14.84;100.00;102329.94;5050935;28;20929;-73
2022/08/30 01:33:11;;;;;;;4.93;2.73;;;;;;;14.80;100.00;102326.78;5048400;28;20429;-73
2022/08/30 01:35:52;;;;;;;3.73;2.20;;;;;;;15.13;100.00;102412.78;5031020;28;20179;-74
2022/08/30 01:38:21;;;;;;;2.27;1.90;;;;;;;15.26;100.00;102417.50;5029319;28;20464;-73
2022/08/30 01:40:47;;;;;;;2.73;2.13;;;;;;;14.82;100.00;102348.22;5047884;28;20427;-73
2022/08/30 01:43:14;;;;;;;2.70;1.77;;;;;;;14.65;100.00;102313.31;5047571;28;20465;-73
2022/08/30 01:45:40;;;;;;;3.07;2.30;;;;;;;15.53;100.00;102413.19;5025330;28;20457;-73
2022/08/30 01:48:06;;;;;;;2.77;1.80;;;;;;;15.22;100.00;102395.44;5030897;28;20978;-73
2022/08/30 01:50:31;;;;;;;2.70;1.93;;;;;;;14.89;100.00;102336.44;5049348;28;20419;-73
2022/08/30 01:52:57;;;;;;;2.43;2.03;;;;;;;15.17;100.00;102421.34;5046402;28;20267;-73
2022/08/30 01:55:22;;;;;;;4.20;2.10;;;;;;;14.97;100.00;102367.06;5049439;28;20187;-73
2022/08/30 01:57:48;;;;;;;5.10;2.17;;;;;;;15.15;100.00;102365.59;5050483;28;20246;-73
2022/08/30 02:00:15;;;;;;;2.93;2.13;;;;;;;14.99;100.00;102336.13;5050085;28;20194;-73
2022/08/30 02:02:41;;;;;;;4.50;2.27;;;;;;;15.15;100.00;102370.19;5048309;28;20696;-74
2022/08/30 02:05:07;;;;;;;3.80;2.20;;;;;;;14.59;100.00;102294.34;5030766;28;20430;-73
2022/08/30 02:07:32;;;;;;;2.43;1.93;;;;;;;14.63;100.00;102333.44;5047342;28;20617;-73
2022/08/30 02:09:58;;;;;;;2.80;2.00;;;;;;;15.15;100.00;102365.59;5049841;28;20499;-74
2022/08/30 02:12:24;;;;;;;2.60;2.23;;;;;;;14.72;100.00;102269.34;5047985;28;20254;-73
2022/08/30 02:14:50;;;;;;;2.47;1.70;;;;;;;15.50;100.00;102409.00;5049314;28;20176;-73
2022/08/30 02:17:15;;;;;;;2.47;2.23;;;;;;;15.46;100.00;102432.06;5032654;28;20981;-73
2022/08/30 02:19:42;;;;;;;4.37;2.40;;;;;;;15.32;100.00;102422.97;5049818;28;20176;-73
2022/08/30 02:22:08;;;;;;;2.90;1.83;;;;;;;15.26;100.00;102447.22;5029406;28;20642;-73
2022/08/30 02:24:33;;;;;;;4.30;2.10;;;;;;;15.24;100.00;102427.66;5049102;28;20964;-73
2022/08/30 02:26:59;;;;;;;3.40;2.17;;;;;;;14.98;100.00;102390.34;5031057;28;20478;-74
2022/08/30 02:29:25;;;;;;;3.47;2.30;;;;;;;15.05;100.00;102381.31;5031821;28;20267;-74
2022/08/30 02:31:50;;;;;;;2.50;1.87;;;;;;;15.28;100.00;102437.06;5047218;28;20183;-73
2022/08/30 02:34:17;;;;;;;2.13;1.93;;;;;;;14.88;100.00;102377.16;5048515;28;20442;-73
2022/08/30 02:36:44;;;;;;;3.53;1.90;;;;;;;14.61;100.00;102322.84;5048957;28;20194;-74
2022/08/30 02:39:11;;;;;;;2.10;1.67;;;;;;;15.42;100.00;102446.16;5047167;28;20434;-73
2022/08/30 02:41:38;;;;;;;2.83;1.97;;;;;;;15.42;100.00;102436.19;5049036;28;20449;-74
2022/08/30 02:44:05;;;;;;;2.90;1.80;;;;;;;15.48;100.00;102438.13;5036499;28;20565;-73
2022/08/30 02:46:30;;;;;;;2.50;2.27;;;;;;;15.29;100.00;102430.63;5047325;28;20787;-73
2022/08/30 02:48:56;;;;;;;2.33;2.13;;;;;;;14.33;100.00;102313.72;5047425;28;20452;-73
2022/08/30 02:51:21;;;;;;;3.20;2.20;;;;;;;15.26;100.00;102447.22;5048293;28;20183;-73
2022/08/30 02:53:48;;;;;;;3.03;2.50;;;;;;;14.59;100.00;102340.25;5047172;28;20683;-73
2022/08/30 02:56:14;;;;;;;2.10;1.90;;;;;;;15.36;100.00;102432.38;5031391;28;20184;-73
2022/08/30 02:58:43;;;;;;;2.87;2.10;;;;;;;14.73;100.00;102352.06;5048175;28;20864;-73
2022/08/30 03:01:12;;;;;;;1.83;1.73;;;;;;;15.35;100.00;102405.53;5024696;28;21017;-73
2022/08/30 03:03:39;;;;;;;2.33;2.00;;;;;;;15.17;100.00;102392.44;5046106;28;20485;-73
2022/08/30 03:06:04;;;;;;;3.20;2.33;;;;;;;14.70;100.00;102364.06;5048062;28;20430;-73
2022/08/30 03:08:31;;;;;;;2.53;1.87;;;;;;;14.94;100.00;102402.59;5046095;28;20480;-73
2022/08/30 03:10:56;;;;;;;4.27;2.27;;;;;;;14.32;100.00;102279.63;5048285;28;20184;-73
2022/08/30 03:13:23;;;;;;;3.97;2.40;;;;;;;15.32;100.00;102432.94;5047202;28;20446;-73
2022/08/30 03:15:49;;;;;;;2.57;1.80;;;;;;;14.81;100.00;102369.00;5047280;28;20687;-73
2022/08/30 03:18:16;;;;;;;3.10;2.20;;;;;;;15.18;100.00;102433.81;5049250;28;20434;-73
2022/08/30 03:20:42;;;;;;;2.17;1.87;;;;;;;15.39;100.00;102428.47;5048692;28;20594;-73
2022/08/30 03:23:07;;;;;;;2.43;2.00;;;;;;;15.09;100.00;102389.88;5045907;28;20466;-73
2022/08/30 03:25:33;;;;;;;1.67;1.57;;;;;;;15.38;100.00;102432.19;5047485;28;20233;-73
2022/08/30 03:27:58;;;;;;;2.67;2.20;;;;;;;15.52;100.00;102443.97;5037979;28;20216;-73
2022/08/30 03:30:24;;;;;;;2.50;1.83;;;;;;;15.15;100.00;102389.09;5047846;28;20188;-73
2022/08/30 03:32:50;;;;;;;2.90;2.07;;;;;;;14.71;100.00;102327.09;5043079;28;20271;-73
2022/08/30 03:35:16;;;;;;;2.27;1.80;;;;;;;14.78;100.00;102334.25;5048015;28;20179;-73
2022/08/30 03:37:42;;;;;;;2.83;2.23;;;;;;;15.28;100.00;102437.91;5046938;28;20322;-74
2022/08/30 03:40:09;;;;;;;2.33;1.60;;;;;;;14.26;100.00;102286.63;5030338;28;20777;-73
2022/08/30 03:42:35;;;;;;;2.33;1.87;;;;;;;14.88;100.00;102405.00;5046081;28;20203;-74
2022/08/30 03:45:01;;;;;;;2.83;1.73;;;;;;;15.28;100.00;102437.06;5030190;28;20426;-74
2022/08/30 03:47:28;;;;;;;1.77;1.50;;;;;;;15.16;100.00;102436.75;5048826;28;20230;-74
2022/08/30 03:49:53;;;;;;;2.30;1.67;;;;;;;14.53;100.00;102346.41;5030174;28;20458;-73
2022/08/30 03:52:19;;;;;;;2.20;2.00;;;;;;;14.98;100.00;102404.69;5046485;28;20929;-74
2022/08/30 03:54:44;;;;;;;3.70;2.33;;;;;;;15.20;100.00;102404.75;5045682;28;20184;-73
2022/08/30 03:57:10;;;;;;;2.43;2.00;;;;;;;14.56;100.00;102298.25;5046484;28;20205;-73
2022/08/30 03:59:35;;;;;;;2.10;1.83;;;;;;;15.03;100.00;102398.75;5048157;28;20232;-74
2022/08/30 04:02:01;;;;;;;2.10;1.60;;;;;;;14.81;100.00;102360.03;5047939;28;20203;-74
2022/08/30 04:04:26;;;;;;;1.97;1.60;;;;;;;15.36;100.00;102440.50;5045561;28;20314;-73
2022/08/30 04:06:52;;;;;;;4.13;2.20;;;;;;;15.34;100.00;102409.28;5047299;28;20187;-74
2022/08/30 04:09:18;;;;;;;3.97;2.33;;;;;;;14.68;100.00;102293.19;5046192;28;20187;-74
2022/08/30 04:11:43;;;;;;;3.47;2.07;;;;;;;14.94;100.00;102327.78;5030469;28;20192;-73
2022/08/30 04:14:09;;;;;;;3.97;2.20;;;;;;;14.24;100.00;102259.84;5051217;28;20438;-74
2022/08/30 04:16:34;;;;;;;2.13;1.87;;;;;;;15.21;100.00;102439.69;5049995;28;20617;-74
2022/08/30 04:19:00;;;;;;;2.73;1.50;;;;;;;14.60;100.00;102352.72;5051291;28;20267;-73
2022/08/30 04:21:26;;;;;;;2.00;1.80;;;;;;;15.02;100.00;102437.59;5030495;28;22103;-73
2022/08/30 04:23:51;;;;;;;1.77;1.67;;;;;;;14.91;100.00;102410.03;5031583;28;20552;-74
2022/08/30 04:26:17;;;;;;;3.30;1.90;;;;;;;15.07;100.00;102438.72;5033415;28;20198;-73
2022/08/30 04:28:42;;;;;;;2.17;1.50;;;;;;;15.17;100.00;102432.16;5051535;28;20227;-74
2022/08/30 04:31:13;;;;;;;2.03;1.70;;;;;;;15.07;100.00;102440.56;5049325;28;20608;-74
2022/08/30 04:33:39;;;;;;;2.70;1.87;;;;;;;15.21;100.00;102444.25;5049687;28;20267;-74
2022/08/30 04:36:07;;;;;;;2.63;1.53;;;;;;;14.96;100.00;102422.16;5051304;28;20509;-74
2022/08/30 04:38:34;;;;;;;2.17;1.90;;;;;;;15.08;100.00;102466.56;5048034;28;20282;-74
2022/08/30 04:40:59;;;;;;;1.87;1.70;;;;;;;14.99;100.00;102449.63;5051082;28;20803;-74
2022/08/30 04:43:25;;;;;;;2.10;1.90;;;;;;;14.09;100.00;102302.19;5047650;28;20497;-74
2022/08/30 04:45:52;;;;;;;2.50;1.50;;;;;;;14.15;100.00;102327.59;5052029;28;20201;-73
2022/08/30 04:48:18;;;;;;;2.37;1.70;;;;;;;14.77;100.00;102423.56;5033345;28;20443;-74
2022/08/30 04:50:45;;;;;;;2.10;1.90;;;;;;;14.83;100.00;102447.13;5052582;28;20422;-73
2022/08/30 04:53:12;;;;;;;1.77;1.60;;;;;;;14.54;100.00;102411.00;5049597;28;20453;-74
2022/08/30 04:55:38;;;;;;;3.87;1.67;;;;;;;13.74;100.00;102280.31;5051771;28;20433;-73
2022/08/30 04:58:05;;;;;;;3.57;2.07;;;;;;;14.86;100.00;102473.75;5050502;28;20450;-74
2022/08/30 05:00:31;;;;;;;2.10;1.50;;;;;;;13.78;100.00;102292.41;5050555;28;20903;-74
2022/08/30 05:02:57;;;;;;;3.40;1.70;;;;;;;14.62;100.00;102442.47;5030342;28;20485;-74
2022/08/30 05:05:41;;;;;;;2.30;1.63;;;;;;;14.93;100.00;102461.19;5050761;28;20513;-74
2022/08/30 05:08:12;;;;;;;2.17;1.80;;;;;;;14.82;100.00;102470.59;5048477;28;20513;-74
2022/08/30 05:10:43;;;;;;;1.70;1.60;;;;;;;14.86;100.00;102462.94;5051650;28;20521;-74
2022/08/30 05:13:10;;;;;;;2.20;1.47;;;;;;;14.46;100.00;102416.47;5049379;28;20422;-74
2022/08/30 05:15:36;;;;;;;1.77;1.60;;;;;;;14.93;100.00;102469.28;5048664;28;20445;-74
2022/08/30 05:18:03;;;;;;;3.63;1.60;;;;;;;15.03;100.00;102467.13;5047474;28;20495;-74
2022/08/30 05:20:28;;;;;;;2.37;1.60;;;;;;;14.00;100.00;102335.66;5050167;28;20457;-74
2022/08/30 05:22:54;;;;;;;1.90;1.50;;;;;;;13.90;100.00;102327.03;5046925;28;20551;-73
2022/08/30 05:25:26;;;;;;;3.80;2.00;;;;;;;14.87;100.00;102478.16;5031217;28;20682;-74
2022/08/30 05:27:52;;;;;;;1.90;1.40;;;;;;;14.90;100.00;102483.19;5042873;28;20219;-74
2022/08/30 05:30:18;;;;;;;3.60;1.70;;;;;;;14.05;100.00;102373.72;5029441;28;20442;-74
2022/08/30 05:32:44;;;;;;;3.40;1.73;;;;;;;14.83;100.00;102480.38;5048714;28;20427;-73
2022/08/30 05:35:12;;;;;;;1.73;1.40;;;;;;;14.83;100.00;102495.75;5049386;28;20253;-74
2022/08/30 05:37:37;;;;;;;3.73;1.63;;;;;;;14.63;100.00;102458.47;5047645;28;20287;-74
2022/08/30 05:40:05;;;;;;;3.70;2.00;;;;;;;14.19;100.00;102363.97;5030114;28;21001;-74
2022/08/30 05:42:31;;;;;;;1.97;1.70;;;;;;;14.57;100.00;102444.91;5049753;28;20203;-73
2022/08/30 05:44:57;;;;;;;2.40;1.53;;;;;;;14.66;100.00;102481.59;5050213;28;20430;-74
2022/08/30 05:47:22;;;;;;;2.40;1.57;;;;;;;14.72;100.00;102486.25;5047171;28;20495;-74
2022/08/30 05:49:48;;;;;;;4.83;1.90;;;;;;;13.97;100.00;102363.88;5049618;28;20172;-74
2022/08/30 05:52:16;;;;;;;2.80;1.83;;;;;;;14.30;100.00;102419.34;5037153;28;20209;-74
2022/08/30 05:54:43;;;;;;;2.40;1.70;;;;;;;14.88;100.00;102491.47;5047397;28;20187;-74
2022/08/30 05:57:08;;;;;;;2.70;1.50;;;;;;;14.74;100.00;102480.66;5031642;28;20576;-74
2022/08/30 05:59:34;;;;;;;4.53;1.70;;;;;;;14.34;100.00;102399.06;5049110;28;20425;-74
2022/08/30 06:01:59;;;;;;;5.60;1.73;;;;;;;14.92;100.00;102484.66;5049488;28;20266;-74
2022/08/30 06:04:25;;;;;;;2.63;1.60;;;;;;;14.78;100.00;102485.53;5048635;28;20183;-74
2022/08/30 06:06:50;;;;;;;3.20;1.40;;;;;;;14.65;100.00;102453.75;5046759;28;20246;-74
2022/08/30 06:09:16;;;;;;;1.63;1.37;;;;;;;14.32;100.00;102352.50;5031647;28;20838;-74
2022/08/30 06:11:42;;;;;;;2.40;1.70;;;;;;;14.09;100.00;102355.28;5030393;28;20602;-74
2022/08/30 06:14:08;;;;;;;5.03;2.30;;;;;;;14.93;100.00;102477.41;5047828;28;20192;-74
2022/08/30 06:16:37;;;;;;;1.87;1.50;;;;;;;15.07;100.00;102479.25;5030248;28;20421;-74
2022/08/30 06:19:03;;;;;;;1.63;1.53;;;;;;;14.74;100.00;102397.75;5049034;28;20180;-73
2022/08/30 06:21:35;;;;;;;2.73;1.77;;;;;;;15.34;100.00;102472.28;5031389;28;20564;-74
2022/08/30 06:24:03;;;;;;;4.17;2.03;;;;;;;15.39;100.00;102463.63;5035719;28;20470;-74
2022/08/30 06:26:28;;;;;;;2.60;1.70;;;;;;;15.44;100.00;102474.66;5044855;28;20507;-74
2022/08/30 06:28:55;;;;;;;7.10;2.07;;;;;;;14.76;100.00;102365.19;5049877;28;20532;-74
2022/08/30 06:31:23;;;;;;;2.50;1.60;;;;;;;15.67;100.00;102482.59;5049190;28;20426;-74
2022/08/30 06:33:49;;;;;;;5.00;1.93;;;;;;;15.58;100.00;102472.94;5047705;28;20418;-73
2022/08/30 06:36:20;;;;;;;1.70;1.60;;;;;;;15.80;100.00;102480.09;5045612;28;20426;-74
2022/08/30 06:38:49;;;;;;;1.90;1.50;;;;;;;15.73;100.00;102473.75;5045121;28;20454;-74
2022/08/30 06:41:18;;;;;;;1.80;1.43;;;;;;;15.16;100.00;102363.75;5047212;28;20648;-74
2022/08/30 06:43:44;;;;;;;1.97;1.70;;;;;;;15.32;100.00;102377.00;5048329;28;20466;-75
2022/08/30 06:46:12;;;;;;;3.67;1.77;;;;;;;15.67;100.00;102408.75;5038638;28;20429;-74
2022/08/30 06:48:38;;;;;;;2.27;1.57;;;;;;;15.29;100.00;102328.72;5047181;28;21017;-73
2022/08/30 06:51:04;;;;;;;2.63;1.80;;;;;;;16.16;100.00;102462.88;5044336;28;20530;-74
2022/08/30 06:53:30;;;;;;;3.53;1.73;;;;;;;15.46;100.00;102334.72;5029661;28;20550;-74
2022/08/30 06:55:58;;;;;;;2.43;1.43;;;;;;;16.40;100.00;102448.09;5048088;28;20183;-74
2022/08/30 06:58:23;;;;;;;2.03;1.43;;;;;;;15.66;100.00;102337.59;5048962;28;20446;-74
2022/08/30 07:00:49;;;;;;;2.70;1.33;;;;;;;16.46;100.00;102462.69;5047319;28;20499;-74
2022/08/30 07:03:14;;;;;;;1.90;1.43;;;;;;;16.60;100.00;102460.91;5048606;28;20282;-74
2022/08/30 07:05:40;;;;;;;2.10;1.30;;;;;;;15.78;100.00;102330.63;5047563;28;20737;-74
2022/08/30 07:08:05;;;;;;;0.97;0.90;;;;;;;15.74;100.00;102323.13;5046435;28;20207;-74
2022/08/30 07:10:30;;;;;;;2.37;1.40;;;;;;;16.16;100.00;102380.84;5046577;28;20187;-74
2022/08/30 07:12:56;;;;;;;1.57;1.00;;;;;;;16.92;100.00;102459.44;5030011;28;20709;-74
2022/08/30 07:15:21;;;;;;;1.83;1.10;;;;;;;16.45;100.00;102402.25;5046872;28;20702;-74
2022/08/30 07:20:32;;;;;;;1.60;1.00;;;;;;;16.65;100.00;102364.44;5048083;28;20229;-74
2022/08/30 07:22:57;;;;;;;2.53;1.20;;;;;;;16.55;100.00;102364.00;5046044;28;20862;-74
2022/08/30 07:25:23;;;;;;;1.03;0.90;;;;;;;17.15;100.00;102459.97;5047079;28;20594;-74
2022/08/30 07:27:50;;;;;;;2.57;1.10;;;;;;;17.20;100.00;102464.75;5029606;28;20245;-74
2022/08/30 07:30:17;;;;;;;1.20;1.00;;;;;;;17.09;100.00;102419.25;5048306;28;20254;-74
2022/08/30 07:32:43;;;;;;;1.23;1.13;;;;;;;17.26;100.00;102461.22;5043660;28;20452;-74
2022/08/30 07:35:09;;;;;;;1.40;1.00;;;;;;;17.16;100.00;102431.81;5048145;28;20985;-74
2022/08/30 07:37:34;;;;;;;0.90;0.80;;;;;;;17.52;100.00;102462.34;5046953;28;20254;-74
2022/08/30 07:40:00;;;;;;;2.57;0.83;;;;;;;17.59;100.00;102460.50;5048012;28;20652;-74
2022/08/30 07:42:25;;;;;;;1.53;0.90;;;;;;;17.63;100.00;102454.44;5046008;28;20207;-73
2022/08/30 07:44:51;;;;;;;1.23;0.93;;;;;;;17.60;100.00;102445.88;5029850;28;20261;-73
2022/08/30 07:47:16;;;;;;;1.50;1.00;;;;;;;17.69;100.00;102452.78;5032846;28;20210;-72
2022/08/30 07:49:42;;;;;;;1.00;0.83;;;;;;;17.11;100.00;102360.25;5051912;28;20241;-73
2022/08/30 07:52:07;;;;;;;1.33;0.70;;;;;;;17.27;100.00;102381.56;5049658;28;20205;-73
2022/08/30 07:54:33;;;;;;;1.00;0.90;;;;;;;17.60;100.00;102424.16;5050374;28;20294;-73
2022/08/30 07:56:58;;;;;;;1.17;0.80;;;;;;;17.11;100.00;102316.88;5051754;28;20303;-73
2022/08/30 07:59:24;;;;;;;1.20;1.10;;;;;;;17.97;100.00;102449.91;5034179;28;20221;-73
2022/08/30 08:01:49;;;;;;;1.10;0.97;;;;;;;17.53;100.00;102372.63;5050196;28;20179;-73
2022/08/30 08:04:15;;;;;;;3.30;1.23;;;;;;;17.20;100.00;102306.66;5051248;28;20207;-73
2022/08/30 08:06:41;;;;;;;1.00;0.80;;;;;;;17.59;100.00;102387.25;5046838;28;20199;-72
2022/08/30 08:09:07;;;;;;;1.00;0.90;;;;;;;17.30;100.00;102345.91;5049244;28;20183;-73
2022/08/30 08:11:33;;;;;;;0.83;0.80;;;;;;;18.12;100.00;102441.53;5047798;28;20835;-73
2022/08/30 08:13:59;;;;;;;1.60;1.00;;;;;;;17.86;100.00;102398.13;5049596;28;20421;-73
2022/08/30 08:16:27;;;;;;;1.47;0.90;;;;;;;18.25;100.00;102467.84;5051645;28;20430;-73
2022/08/30 08:18:54;;;;;;;3.03;1.00;;;;;;;18.24;100.00;102430.88;5051446;28;20442;-73
2022/08/30 08:21:24;;;;;;;1.10;0.90;;;;;;;17.78;100.00;102331.31;5047741;28;20859;-73
2022/08/30 08:23:50;;;;;;;3.03;1.17;;;;;;;18.38;100.00;102437.13;5049854;28;21043;-73
2022/08/30 08:26:16;;;;;;;0.90;0.73;;;;;;;18.49;100.00;102442.75;5049740;28;20492;-73
2022/08/30 08:28:43;;;;;;;1.30;1.03;;;;;;;18.57;100.00;102436.22;5051123;28;20450;-73
2022/08/30 08:31:22;;;;;;;1.10;0.73;;;;;;;18.70;100.00;102433.47;5049209;28;20530;-73
2022/08/30 08:33:47;;;;;;;2.10;0.97;;;;;;;18.58;100.00;102409.91;5051232;28;20437;-73
2022/08/30 08:36:13;;;;;;;1.03;0.90;;;;;;;18.73;100.00;102435.78;5049230;28;20441;-73
2022/08/30 08:38:39;;;;;;;0.97;0.70;;;;;;;18.17;100.00;102344.00;5051329;28;20584;-73
2022/08/30 08:41:12;;;;;;;1.63;1.03;;;;;;;18.78;100.00;102431.63;5050725;28;20426;-73
2022/08/30 08:43:39;;;;;;;1.20;1.00;;;;;;;18.63;100.00;102431.81;5049153;28;20655;-73
2022/08/30 08:46:15;;;;;;;1.40;0.70;;;;;;;18.81;100.00;102442.88;5050599;28;20414;-73
2022/08/30 08:48:48;;;;;;;0.80;0.80;;;;;;;18.97;100.00;102445.09;5049724;28;20532;-73
2022/08/30 08:54:09;;;;;;;4.10;1.10;;;;;;;19.09;100.00;102439.84;5050483;28;20398;-73
2022/08/30 08:56:35;;;;;;;1.00;0.70;;;;;;;19.03;100.00;102404.50;5049692;28;20418;-73
2022/08/30 08:59:00;;;;;;;1.90;0.87;;;;;;;18.52;100.00;102320.03;5049978;28;20414;-73
2022/08/30 09:01:29;;;;;;;0.90;0.80;;;;;;;19.44;100.00;102436.72;5048282;28;20438;-73
2022/08/30 09:03:56;;;;;;;3.10;1.03;;;;;;;19.35;100.00;102438.88;5049604;28;20290;-73
2022/08/30 09:06:52;;;;;;;0.97;0.80;;;;;;;19.41;100.00;102437.13;5047625;28;20445;-73
2022/08/30 09:09:23;;;;;;;1.00;0.80;;;;;;;19.41;100.00;102396.31;5050082;28;20413;-73
2022/08/30 09:11:48;;;;;;;1.33;0.80;;;;;;;19.70;100.00;102427.56;5031433;28;20950;-73
2022/08/30 09:14:32;;;;;;;1.00;0.77;;;;;;;19.46;100.00;102384.78;5049573;28;20430;-73
2022/08/30 09:16:58;;;;;;;1.40;0.80;;;;;;;19.66;100.00;102426.31;5049944;28;20576;-73
2022/08/30 09:19:44;;;;;;;1.40;0.90;;;;;;;19.57;100.00;102428.44;5048332;28;20892;-75
2022/08/30 09:22:25;;;;;;;1.53;0.90;;;;;;;19.40;100.00;102421.88;5047000;28;20791;-75
2022/08/30 09:25:22;;;;;;;2.00;1.00;;;;;;;19.46;100.00;102423.72;5045102;28;20500;-73
2022/08/30 09:27:49;;;;;;;1.57;0.80;;;;;;;19.28;100.00;102418.19;5046351;28;20481;-73
2022/08/30 09:30:27;;;;;;;0.97;0.90;;;;;;;19.32;100.00;102424.84;5043418;28;20438;-74
2022/08/30 09:33:02;;;;;;;1.00;0.90;;;;;;;19.20;100.00;102435.59;5048145;28;20434;-74
2022/08/30 09:35:35;;;;;;;1.03;0.87;;;;;;;19.20;100.00;102428.25;5048052;28;20437;-74
2022/08/30 09:38:07;;;;;;;1.10;0.80;;;;;;;19.39;100.00;102428.38;5048646;28;20446;-76
2022/08/30 09:40:48;;;;;;;1.77;0.90;;;;;;;19.54;100.00;102428.88;5031236;28;20867;-74
2022/08/30 09:43:16;;;;;;;4.33;1.00;;;;;;;19.85;100.00;102429.97;5050698;28;20462;-74
2022/08/30 09:45:58;;;;;;;0.70;0.70;;;;;;;19.86;100.00;102415.28;5045397;28;20480;-74
2022/08/30 09:48:42;;;;;;;2.30;1.30;;;;;;;19.83;100.00;102399.38;5047210;28;20453;-74
2022/08/30 09:51:14;;;;;;;0.70;0.70;;;;;;;20.00;100.00;102421.44;5030057;28;20458;-74
2022/08/30 09:53:54;;;;;;;1.73;0.87;;;;;;;19.96;100.00;102422.94;5049823;28;20531;-75
2022/08/30 09:56:42;;;;;;;1.07;0.90;;;;;;;19.25;100.00;102340.56;5046601;28;20448;-74
2022/08/30 09:59:25;;;;;;;1.10;1.00;;;;;;;19.75;100.00;102419.53;5049025;28;20437;-74
2022/08/30 10:02:03;;;;;;;0.97;0.87;;;;;;;19.74;100.00;102406.16;5048659;28;20414;-74
2022/08/30 10:05:03;;;;;;;1.10;0.97;;;;;;;19.79;100.00;102414.50;5048365;28;20497;-75
2022/08/30 10:07:44;;;;;;;1.17;0.90;;;;;;;19.69;100.00;102416.88;5042125;28;20458;-74
2022/08/30 10:10:34;;;;;;;1.93;1.23;;;;;;;19.61;100.00;102416.09;5031111;28;21164;-74
2022/08/30 10:13:17;;;;;;;1.10;0.80;;;;;;;19.66;100.00;102415.44;5049925;28;20421;-73
2022/08/30 10:15:53;;;;;;;1.37;0.80;;;;;;;19.68;100.00;102388.00;5048887;28;20480;-74
2022/08/30 10:18:22;;;;;;;0.90;0.77;;;;;;;19.98;100.00;102402.59;5047351;28;20504;-74
2022/08/30 10:21:02;;;;;;;1.00;0.70;;;;;;;20.15;100.00;102404.75;5045965;28;20495;-74
2022/08/30 10:23:32;;;;;;;1.00;0.80;;;;;;;20.08;100.00;102383.88;5048910;28;20457;-74
2022/08/30 10:26:16;;;;;;;0.87;0.73;;;;;;;20.45;100.00;102400.25;5048524;28;20559;-74
2022/08/30 10:28:57;;;;;;;0.87;0.67;;;;;;;20.06;100.00;102326.03;5047275;28;20546;-74
2022/08/30 10:31:55;;;;;;;1.20;0.80;;;;;;;20.63;100.00;102376.81;5048262;28;20962;-74
2022/08/30 10:34:31;;;;;;;0.90;0.73;;;;;;;20.05;100.00;102304.50;5022307;28;20449;-74
2022/08/30 10:37:08;;;;;;;1.37;0.90;;;;;;;20.81;100.00;102384.13;5045932;28;20462;-74
2022/08/30 10:39:42;;;;;;;1.30;0.80;;;;;;;20.80;100.00;102375.09;5048856;28;20515;-74
2022/08/30 10:42:29;;;;;;;1.30;0.70;;;;;;;21.02;100.00;102402.69;5047862;28;20415;-74
2022/08/30 10:45:01;;;;;;;1.70;1.00;;;;;;;20.38;100.00;102319.63;5046878;28;20481;-74
2022/08/30 10:47:40;;;;;;;0.70;0.70;;;;;;;20.59;100.00;102400.94;5046788;28;20439;-74
2022/08/30 10:50:15;;;;;;;0.90;0.63;;;;;;;20.49;100.00;102404.16;5022212;28;20441;-74
2022/08/30 10:53:25;;;;;;;1.07;0.97;;;;;;;20.39;100.00;102401.13;5047507;28;20470;-74
2022/08/30 10:55:59;;;;;;;1.13;0.87;;;;;;;20.30;100.00;102358.91;5004898;28;20434;-74
2022/08/30 10:58:25;;;;;;;1.20;1.00;;;;;;;20.74;100.00;102395.94;5030373;28;20450;-75
2022/08/30 11:01:13;;;;;;;1.13;0.73;;;;;;;20.99;100.00;102392.25;5047707;28;20815;-74
2022/08/30 11:03:57;;;;;;;0.70;0.70;;;;;;;21.22;100.00;102402.41;5048804;28;20271;-75
2022/08/30 11:06:34;;;;;;;0.90;0.80;;;;;;;20.92;100.00;102370.53;5027541;28;20434;-75
2022/08/30 11:09:14;;;;;;;1.77;0.80;;;;;;;20.86;100.00;102397.88;5030057;28;20422;-74
2022/08/30 11:12:18;;;;;;;1.73;0.80;;;;;;;20.80;100.00;102386.03;5048810;28;20478;-74
2022/08/30 11:14:44;;;;;;;0.80;0.70;;;;;;;20.58;100.00;102377.47;5046206;28;20806;-75
2022/08/30 11:17:25;;;;;;;0.97;0.80;;;;;;;20.94;100.00;102392.97;5024718;28;20438;-73
2022/08/30 11:19:52;;;;;;;1.33;0.83;;;;;;;20.48;100.00;102285.31;5046602;28;20422;-73
2022/08/30 11:22:29;;;;;;;1.13;0.80;;;;;;;21.17;100.00;102358.63;5050114;28;20438;-72
2022/08/30 11:25:35;;;;;;;0.70;0.70;;;;;;;21.38;100.00;102358.13;5053093;28;20426;-73
2022/08/30 11:28:01;;;;;;;1.87;0.70;;;;;;;20.99;100.00;102294.88;5051463;28;20468;-74
2022/08/30 11:30:45;;;;;;;1.13;0.80;;;;;;;21.26;100.00;102316.28;5051423;28;20421;-74
2022/08/30 11:33:10;;;;;;;2.70;0.80;;;;;;;21.54;100.00;102383.91;5049637;28;20182;-75